Time;durP1;ratioP1;P1;durP2;ratioP2;P2;SDS_P1;SDS_P2;PMS_P1;PMS_P2;Temp;Humidity;BMP_temperature;BMP_pressure;BME280_temperature;BME280_humidity;BME280_pressure;Samples;Min_cycle;Max_cycle;Signal;HPM_P1;HPM_P2
2022/08/07 00:00:59;;;;;;;60.80;50.15;;;24.00;49.70;;;;;;4942505;28;91167;-56
2022/08/07 00:03:27;;;;;;;61.45;49.85;;;24.00;49.70;;;;;;4928340;28;97102;-53
2022/08/07 00:05:53;;;;;;;59.47;49.88;;;24.00;50.40;;;;;;4936597;28;90863;-54
2022/08/07 00:08:21;;;;;;;60.00;50.00;;;24.00;49.90;;;;;;4945993;28;90469;-53
2022/08/07 00:10:47;;;;;;;62.08;50.15;;;23.90;49.90;;;;;;4942041;28;93192;-54
2022/08/07 00:13:13;;;;;;;61.05;49.95;;;23.90;50.00;;;;;;4942513;28;93193;-54
2022/08/07 00:15:39;;;;;;;59.92;49.70;;;23.90;50.10;;;;;;4944579;28;95140;-50
2022/08/07 00:18:05;;;;;;;59.63;49.90;;;23.90;50.10;;;;;;4935964;28;90530;-54
2022/08/07 00:20:30;;;;;;;59.35;50.00;;;23.90;50.20;;;;;;4932263;28;91896;-55
2022/08/07 00:22:56;;;;;;;60.30;50.05;;;23.80;50.20;;;;;;4945245;28;91004;-52
2022/08/07 00:25:23;;;;;;;59.88;49.70;;;23.80;50.30;;;;;;4945082;28;90283;-55
2022/08/07 00:27:49;;;;;;;60.72;49.85;;;23.80;50.30;;;;;;4945463;28;90775;-53
2022/08/07 00:30:15;;;;;;;60.10;49.83;;;23.80;50.40;;;;;;4940649;28;90652;-54
2022/08/07 00:32:41;;;;;;;60.65;49.97;;;23.80;50.40;;;;;;4939780;28;89580;-48
2022/08/07 00:35:07;;;;;;;59.78;49.63;;;23.80;50.60;;;;;;4945483;28;90010;-47
2022/08/07 00:37:33;;;;;;;59.03;49.72;;;23.70;51.20;;;;;;4937852;28;90526;-54
2022/08/07 00:39:58;;;;;;;59.85;49.75;;;23.80;50.70;;;;;;4941586;28;96798;-55
2022/08/07 00:42:24;;;;;;;61.45;49.95;;;23.70;50.70;;;;;;4935525;28;89924;-47
2022/08/07 00:44:50;;;;;;;59.45;49.75;;;23.60;50.70;;;;;;4940311;28;90396;-52
2022/08/07 00:47:16;;;;;;;60.20;49.90;;;23.70;50.80;;;;;;4944779;28;89675;-53
2022/08/07 00:49:41;;;;;;;59.88;49.85;;;23.70;50.80;;;;;;4938006;28;90787;-53
2022/08/07 00:52:08;;;;;;;58.78;49.58;;;23.70;50.90;;;;;;4945181;28;91195;-51
2022/08/07 00:54:34;;;;;;;60.20;49.97;;;23.60;50.90;;;;;;4942916;28;95148;-54
2022/08/07 00:57:00;;;;;;;59.92;49.90;;;23.60;51.00;;;;;;4948872;28;90149;-54
2022/08/07 00:59:26;;;;;;;60.47;49.83;;;23.60;51.20;;;;;;4939001;28;92592;-55
2022/08/07 01:01:52;;;;;;;59.95;49.72;;;23.60;51.10;;;;;;4897793;28;1204548;-49
2022/08/07 01:04:19;;;;;;;59.55;49.53;;;23.60;51.20;;;;;;4940632;28;91970;-51
2022/08/07 01:06:45;;;;;;;59.50;49.80;;;23.60;51.30;;;;;;4937416;28;90328;-55
2022/08/07 01:09:11;;;;;;;59.33;49.75;;;23.60;51.30;;;;;;4941675;28;94759;-53
2022/08/07 01:11:37;;;;;;;60.55;49.88;;;23.50;51.30;;;;;;4943278;28;91077;-55
2022/08/07 01:14:03;;;;;;;59.22;49.65;;;23.50;51.40;;;;;;4940553;28;90626;-53
2022/08/07 01:16:30;;;;;;;58.78;49.40;;;23.50;51.40;;;;;;4945718;28;91081;-57
2022/08/07 01:18:56;;;;;;;59.53;49.80;;;23.50;51.50;;;;;;4938099;28;93858;-55
2022/08/07 01:21:25;;;;;;;59.38;49.78;;;23.50;51.50;;;;;;4943244;28;90871;-56
2022/08/07 01:23:53;;;;;;;59.75;49.60;;;23.50;51.70;;;;;;4939018;28;92225;-55
2022/08/07 01:26:21;;;;;;;60.13;49.95;;;23.40;51.70;;;;;;4933667;28;89982;-56
2022/08/07 01:28:49;;;;;;;59.88;49.80;;;23.50;51.80;;;;;;4946303;28;89842;-53
2022/08/07 01:31:16;;;;;;;59.15;49.80;;;23.50;51.80;;;;;;4944195;28;90176;-55
2022/08/07 01:33:42;;;;;;;59.10;49.67;;;23.40;51.80;;;;;;4947015;28;89007;-55
2022/08/07 01:36:09;;;;;;;59.83;49.85;;;23.40;51.80;;;;;;4937664;28;91281;-54
2022/08/07 01:38:35;;;;;;;59.03;49.38;;;23.40;51.90;;;;;;4944147;28;90026;-50
2022/08/07 01:41:02;;;;;;;59.60;49.60;;;23.40;51.90;;;;;;4939620;28;90770;-54
2022/08/07 01:43:29;;;;;;;59.88;49.53;;;23.40;52.00;;;;;;4933949;28;90298;-55
2022/08/07 01:45:56;;;;;;;59.47;49.40;;;23.40;52.00;;;;;;4928522;28;90640;-55
2022/08/07 01:48:22;;;;;;;58.88;49.72;;;23.40;52.00;;;;;;4950900;28;93063;-55
2022/08/07 01:51:01;;;;;;;59.63;49.83;;;23.40;52.10;;;;;;4945848;28;90071;-55
2022/08/07 01:53:28;;;;;;;59.45;49.58;;;23.30;52.10;;;;;;4942966;28;90626;-51
2022/08/07 01:56:02;;;;;;;59.80;49.78;;;23.40;52.10;;;;;;4939044;28;91301;-55
2022/08/07 01:58:32;;;;;;;59.03;49.50;;;23.40;52.20;;;;;;4936114;28;94885;-55
2022/08/07 02:01:02;;;;;;;58.75;49.65;;;23.30;52.20;;;;;;4936842;28;91659;-53
2022/08/07 02:03:32;;;;;;;58.38;49.28;;;23.30;52.40;;;;;;4939337;28;90041;-55
2022/08/07 02:06:06;;;;;;;59.97;49.72;;;23.30;52.40;;;;;;4934602;28;98148;-56
2022/08/07 02:08:36;;;;;;;58.65;49.67;;;23.30;52.40;;;;;;4939007;28;91731;-53
2022/08/07 02:11:04;;;;;;;58.72;49.58;;;23.30;52.30;;;;;;4946237;28;89615;-49
2022/08/07 02:13:32;;;;;;;58.15;49.45;;;23.30;52.50;;;;;;4936169;28;90520;-55
2022/08/07 02:16:01;;;;;;;59.10;49.58;;;23.30;52.50;;;;;;4941863;28;92378;-56
2022/08/07 02:18:29;;;;;;;59.58;49.50;;;23.20;52.50;;;;;;4930002;28;92292;-54
2022/08/07 02:20:56;;;;;;;58.85;49.72;;;23.20;52.50;;;;;;4952815;28;90421;-55
2022/08/07 02:23:23;;;;;;;59.08;49.53;;;23.20;52.60;;;;;;4945061;28;90629;-54
2022/08/07 02:25:52;;;;;;;58.17;49.47;;;23.20;52.70;;;;;;4940101;28;92069;-55
2022/08/07 02:28:19;;;;;;;58.75;49.53;;;23.20;52.60;;;;;;4950079;28;90042;-55
2022/08/07 02:30:46;;;;;;;59.25;49.80;;;23.20;52.60;;;;;;4939636;28;92146;-53
2022/08/07 02:33:13;;;;;;;58.40;49.45;;;23.20;52.70;;;;;;4939191;28;91815;-53
2022/08/07 02:35:40;;;;;;;58.20;49.53;;;23.20;52.70;;;;;;4944242;28;93631;-54
2022/08/07 02:38:07;;;;;;;59.05;49.47;;;23.10;52.70;;;;;;4940711;28;90036;-49
2022/08/07 02:40:34;;;;;;;59.63;49.58;;;23.20;52.80;;;;;;4951154;28;95440;-52
2022/08/07 02:43:01;;;;;;;58.85;49.72;;;23.20;52.80;;;;;;4934332;28;90459;-53
2022/08/07 02:45:29;;;;;;;58.78;49.65;;;23.20;52.80;;;;;;4943700;28;90892;-54
2022/08/07 02:47:55;;;;;;;58.85;49.78;;;23.10;52.80;;;;;;4947191;28;89745;-55
2022/08/07 02:50:21;;;;;;;58.83;49.45;;;23.10;52.80;;;;;;4944517;28;90332;-55
2022/08/07 02:52:53;;;;;;;59.20;49.75;;;23.10;52.90;;;;;;4954383;28;90151;-56
2022/08/07 02:55:28;;;;;;;58.22;49.70;;;23.10;52.90;;;;;;4938999;28;94386;-52
2022/08/07 02:58:01;;;;;;;58.65;49.30;;;23.10;53.00;;;;;;4931757;28;91777;-49
2022/08/07 03:00:29;;;;;;;58.15;49.20;;;23.10;53.00;;;;;;4935471;28;91207;-55
2022/08/07 03:02:55;;;;;;;58.17;49.30;;;23.00;53.00;;;;;;4940028;28;89927;-49
2022/08/07 03:05:23;;;;;;;58.30;49.45;;;23.10;53.00;;;;;;4944947;28;93944;-51
2022/08/07 03:07:49;;;;;;;58.03;49.55;;;23.10;53.00;;;;;;4936216;28;90166;-56
2022/08/07 03:10:16;;;;;;;58.28;49.63;;;23.00;53.00;;;;;;4943630;28;89820;-51
2022/08/07 03:12:44;;;;;;;58.65;49.45;;;23.00;53.00;;;;;;4939165;28;89349;-55
2022/08/07 03:15:11;;;;;;;58.38;49.65;;;23.00;53.00;;;;;;4933250;28;90675;-49
2022/08/07 03:17:38;;;;;;;58.80;49.45;;;23.00;53.00;;;;;;4936592;28;90250;-52
2022/08/07 03:20:05;;;;;;;59.05;49.72;;;23.00;53.10;;;;;;4935958;28;92771;-54
2022/08/07 03:22:31;;;;;;;58.17;49.17;;;23.00;53.10;;;;;;4944463;28;90666;-55
2022/08/07 03:24:58;;;;;;;58.28;49.63;;;23.00;53.10;;;;;;4928943;28;93121;-54
2022/08/07 03:27:25;;;;;;;58.13;49.50;;;23.00;53.10;;;;;;4940680;28;90438;-54
2022/08/07 03:29:51;;;;;;;57.78;49.22;;;23.00;53.20;;;;;;4935284;28;92208;-52
2022/08/07 03:32:24;;;;;;;57.90;49.28;;;23.00;53.30;;;;;;4949644;28;90076;-55
2022/08/07 03:34:56;;;;;;;57.88;49.38;;;23.00;53.20;;;;;;4937228;28;90309;-51
2022/08/07 03:37:24;;;;;;;57.95;49.22;;;22.90;53.20;;;;;;4946931;28;91114;-56
2022/08/07 03:39:50;;;;;;;58.33;49.55;;;22.90;53.20;;;;;;4939831;28;93739;-54
2022/08/07 03:42:17;;;;;;;58.45;49.45;;;23.00;53.10;;;;;;4938166;28;92596;-52
2022/08/07 03:44:43;;;;;;;59.10;49.45;;;22.90;53.00;;;;;;4934293;28;92002;-54
2022/08/07 03:47:11;;;;;;;58.05;49.63;;;23.00;53.10;;;;;;4949536;28;91697;-54
2022/08/07 03:49:37;;;;;;;58.28;49.50;;;23.00;53.20;;;;;;4936164;28;94105;-56
2022/08/07 03:52:05;;;;;;;58.08;49.35;;;22.90;53.20;;;;;;4948178;28;90147;-56
2022/08/07 03:54:31;;;;;;;58.67;49.42;;;22.90;53.20;;;;;;4942298;28;90030;-51
2022/08/07 03:56:58;;;;;;;57.95;49.55;;;22.90;53.30;;;;;;4941790;28;94105;-54
2022/08/07 03:59:26;;;;;;;58.10;49.45;;;22.90;53.30;;;;;;4947916;28;89921;-49
2022/08/07 04:01:54;;;;;;;58.42;49.60;;;22.90;53.30;;;;;;4945987;28;96400;-52
2022/08/07 04:04:21;;;;;;;58.08;49.55;;;22.90;53.40;;;;;;4937956;28;94922;-51
2022/08/07 04:06:48;;;;;;;58.95;49.53;;;22.80;53.40;;;;;;4935600;28;92306;-54
2022/08/07 04:09:14;;;;;;;59.25;49.65;;;22.80;53.50;;;;;;4944360;28;92397;-50
2022/08/07 04:11:40;;;;;;;58.08;49.65;;;22.80;53.50;;;;;;4942376;28;90971;-53
2022/08/07 04:14:07;;;;;;;58.17;49.63;;;22.80;53.50;;;;;;4954777;28;90093;-53
2022/08/07 04:16:33;;;;;;;58.30;49.45;;;22.80;53.50;;;;;;4936310;28;94461;-49
2022/08/07 04:19:00;;;;;;;58.15;49.58;;;22.80;53.60;;;;;;4949819;28;89890;-54
2022/08/07 04:21:27;;;;;;;58.22;49.63;;;22.80;53.50;;;;;;4935688;28;90088;-56
2022/08/07 04:23:52;;;;;;;58.53;49.35;;;22.80;53.50;;;;;;4947059;28;90661;-53
2022/08/07 04:26:18;;;;;;;58.28;49.47;;;22.80;53.50;;;;;;4945976;28;90132;-55
2022/08/07 04:28:44;;;;;;;57.85;49.30;;;22.80;53.60;;;;;;4933186;28;96153;-54
2022/08/07 04:31:10;;;;;;;57.75;49.22;;;22.80;53.60;;;;;;4940513;28;90147;-55
2022/08/07 04:33:36;;;;;;;58.10;49.35;;;22.80;53.60;;;;;;4946171;28;91446;-55
2022/08/07 04:36:04;;;;;;;58.50;49.55;;;22.80;53.60;;;;;;4949240;28;93803;-55
2022/08/07 04:38:30;;;;;;;58.20;49.70;;;22.70;53.60;;;;;;4942152;28;89509;-54
2022/08/07 04:40:56;;;;;;;57.95;49.35;;;22.80;53.60;;;;;;4954999;28;89701;-55
2022/08/07 04:43:29;;;;;;;58.47;49.47;;;22.70;53.60;;;;;;4946896;28;89965;-52
2022/08/07 04:46:17;;;;;;;59.70;49.53;;;22.70;53.50;;;;;;4943227;28;92028;-52
2022/08/07 04:48:58;;;;;;;58.10;49.65;;;22.80;53.60;;;;;;4948833;28;94615;-51
2022/08/07 04:51:27;;;;;;;58.00;49.50;;;22.80;53.70;;;;;;4945165;28;89872;-54
2022/08/07 04:54:20;;;;;;;57.75;49.28;;;22.80;53.60;;;;;;4945833;28;90953;-56
2022/08/07 04:57:12;;;;;;;57.50;49.45;;;22.80;53.60;;;;;;4946462;28;90847;-54
2022/08/07 05:00:05;;;;;;;58.47;49.35;;;22.80;53.60;;;;;;4942571;28;90902;-53
2022/08/07 05:02:43;;;;;;;58.78;49.38;;;22.80;53.50;;;;;;4941696;28;89811;-55
2022/08/07 05:05:24;;;;;;;58.60;49.35;;;22.70;53.60;;;;;;4937656;28;90312;-57
2022/08/07 05:07:59;;;;;;;;;;;22.80;53.50;;;;;;4942902;28;94719;-54
2022/08/07 05:10:36;;;;;;;57.53;49.15;;;22.70;54.00;;;;;;4943880;28;90394;-54
2022/08/07 05:13:35;;;;;;;58.08;49.47;;;22.80;53.60;;;;;;4935038;28;90226;-55
2022/08/07 05:16:07;;;;;;;57.67;49.40;;;22.80;53.50;;;;;;4940638;28;89738;-51
2022/08/07 05:18:37;;;;;;;58.00;49.30;;;22.70;53.40;;;;;;4941831;28;93535;-55
2022/08/07 05:21:08;;;;;;;58.10;49.45;;;22.80;53.50;;;;;;4939165;28;93881;-56
2022/08/07 05:23:56;;;;;;;57.95;49.38;;;22.80;53.50;;;;;;4939446;28;90844;-55
2022/08/07 05:26:24;;;;;;;58.05;49.67;;;22.80;53.40;;;;;;4951154;28;91204;-49
2022/08/07 05:28:52;;;;;;;57.70;49.38;;;22.90;53.40;;;;;;4945872;28;91178;-55
2022/08/07 05:31:20;;;;;;;57.55;49.40;;;22.80;53.40;;;;;;4940073;28;91584;-56
2022/08/07 05:33:48;;;;;;;57.97;49.67;;;22.80;53.30;;;;;;4950447;28;89627;-55
2022/08/07 05:36:15;;;;;;;57.97;49.38;;;22.80;53.30;;;;;;4952562;28;90279;-52
2022/08/07 05:38:42;;;;;;;58.22;49.28;;;22.80;53.30;;;;;;4934797;28;90407;-50
2022/08/07 05:41:09;;;;;;;58.08;49.53;;;22.90;53.10;;;;;;4949389;28;90427;-53
2022/08/07 05:43:35;;;;;;;57.70;49.33;;;22.90;53.20;;;;;;4938924;28;91195;-54
2022/08/07 05:46:01;;;;;;;58.45;49.53;;;22.90;53.20;;;;;;4936976;28;91013;-52
2022/08/07 05:48:28;;;;;;;57.65;49.45;;;22.90;53.10;;;;;;4949063;28;92038;-55
2022/08/07 05:50:55;;;;;;;57.85;49.42;;;23.00;53.10;;;;;;4929907;28;94752;-55
2022/08/07 05:53:21;;;;;;;57.95;49.47;;;23.00;53.10;;;;;;4939257;28;90436;-54
2022/08/07 05:55:48;;;;;;;58.15;49.53;;;23.00;53.10;;;;;;4947407;28;90199;-53
2022/08/07 05:58:15;;;;;;;58.42;49.58;;;22.90;53.00;;;;;;4931366;28;91264;-50
2022/08/07 06:00:45;;;;;;;57.97;49.42;;;23.00;53.00;;;;;;4938251;28;91043;-52
2022/08/07 06:03:12;;;;;;;58.05;49.65;;;23.00;53.00;;;;;;4940809;28;90210;-47
2022/08/07 06:05:39;;;;;;;58.22;49.28;;;23.00;52.90;;;;;;4943867;28;92937;-54
2022/08/07 06:08:06;;;;;;;57.72;49.28;;;23.00;52.90;;;;;;4942295;28;89452;-54
2022/08/07 06:10:33;;;;;;;58.17;49.28;;;23.10;53.00;;;;;;4936747;28;90513;-56
2022/08/07 06:13:00;;;;;;;59.38;49.72;;;23.00;52.90;;;;;;4936131;28;90286;-55
2022/08/07 06:15:28;;;;;;;57.97;49.60;;;23.10;52.90;;;;;;4954002;28;91037;-50
2022/08/07 06:17:54;;;;;;;57.83;49.42;;;23.10;52.80;;;;;;4944581;28;91130;-51
2022/08/07 06:20:21;;;;;;;57.92;49.45;;;23.10;52.90;;;;;;4936623;28;91111;-55
2022/08/07 06:22:48;;;;;;;57.85;49.33;;;23.10;52.70;;;;;;4943021;28;90190;-50
2022/08/07 06:25:13;;;;;;;58.72;49.42;;;23.10;52.70;;;;;;4939457;28;90778;-50
2022/08/07 06:27:39;;;;;;;58.00;49.40;;;23.10;52.80;;;;;;4941925;28;90668;-56
2022/08/07 06:30:06;;;;;;;58.60;49.50;;;23.10;52.60;;;;;;4934940;28;93702;-54
2022/08/07 06:32:31;;;;;;;58.05;49.58;;;23.20;52.70;;;;;;4950410;28;89148;-56
2022/08/07 06:34:59;;;;;;;58.92;49.75;;;23.10;52.70;;;;;;4942686;28;92290;-55
2022/08/07 06:37:25;;;;;;;58.53;49.72;;;23.20;52.70;;;;;;4954162;28;90688;-52
2022/08/07 06:39:52;;;;;;;58.33;49.45;;;23.20;52.70;;;;;;4931410;28;90963;-55
2022/08/07 06:42:28;;;;;;;58.08;49.47;;;23.20;52.50;;;;;;4939597;28;89882;-53
2022/08/07 06:44:56;;;;;;;58.45;49.53;;;23.20;52.60;;;;;;4940363;28;92718;-51
2022/08/07 06:47:22;;;;;;;58.88;49.75;;;23.20;52.50;;;;;;4950001;28;91570;-52
2022/08/07 06:49:48;;;;;;;58.53;49.55;;;23.20;52.50;;;;;;4930922;28;90305;-51
2022/08/07 06:52:15;;;;;;;58.30;49.40;;;23.20;52.50;;;;;;4940552;28;90870;-57
2022/08/07 06:54:43;;;;;;;58.15;49.45;;;23.30;52.40;;;;;;4945530;28;90757;-54
2022/08/07 06:57:10;;;;;;;58.25;49.50;;;23.30;52.30;;;;;;4943334;28;89199;-49
2022/08/07 06:59:39;;;;;;;59.38;49.63;;;23.30;52.30;;;;;;4937809;28;90245;-54
2022/08/07 07:02:07;;;;;;;58.10;49.47;;;23.30;52.20;;;;;;4932327;28;90196;-57
2022/08/07 07:04:33;;;;;;;62.15;51.50;;;23.30;52.20;;;;;;4936313;28;92458;-50
2022/08/07 07:07:00;;;;;;;61.47;52.15;;;23.20;50.00;;;;;;4932455;28;92724;-53
2022/08/07 07:09:28;;;;;;;61.25;50.78;;;23.00;49.50;;;;;;4932620;28;90055;-52
2022/08/07 07:12:06;;;;;;;60.35;51.00;;;22.70;51.00;;;;;;4938873;28;89660;-53
2022/08/07 07:14:49;;;;;;;61.78;51.33;;;22.70;50.80;;;;;;4938168;28;93123;-52
2022/08/07 07:17:41;;;;;;;61.22;51.15;;;22.80;50.10;;;;;;4943689;28;91623;-53
2022/08/07 07:20:19;;;;;;;59.92;51.33;;;22.70;50.40;;;;;;4940095;28;91637;-54
2022/08/07 07:22:46;;;;;;;59.78;50.53;;;22.60;50.50;;;;;;4944864;28;90137;-50
2022/08/07 07:25:14;;;;;;;59.65;50.42;;;22.60;51.00;;;;;;4938646;28;96080;-54
2022/08/07 07:27:53;;;;;;;62.42;50.42;;;22.80;50.50;;;;;;4948638;28;92336;-50
2022/08/07 07:30:28;;;;;;;62.83;50.22;;;22.90;50.10;;;;;;4948186;28;91253;-50
2022/08/07 07:32:57;;;;;;;60.70;50.03;;;22.90;49.90;;;;;;4946776;28;89560;-48
2022/08/07 07:35:23;;;;;;;65.07;50.35;;;22.90;48.90;;;;;;4931434;28;90282;-52
2022/08/07 07:37:50;;;;;;;63.15;50.17;;;22.80;49.40;;;;;;4926693;28;93402;-54
2022/08/07 07:40:19;;;;;;;61.53;50.30;;;22.80;49.70;;;;;;4932358;28;92307;-53
2022/08/07 07:42:49;;;;;;;58.97;50.00;;;22.80;48.80;;;;;;4944354;28;89982;-52
2022/08/07 07:45:17;;;;;;;58.65;49.65;;;22.70;49.30;;;;;;4937518;28;92027;-51
2022/08/07 07:47:45;;;;;;;59.05;49.67;;;22.70;49.30;;;;;;4936260;28;90752;-53
2022/08/07 07:50:12;;;;;;;60.40;49.97;;;22.70;49.00;;;;;;4952241;28;94141;-54
2022/08/07 07:52:41;;;;;;;60.20;50.13;;;22.80;49.30;;;;;;4932617;28;90184;-51
2022/08/07 07:55:09;;;;;;;61.30;49.92;;;22.70;49.00;;;;;;4942408;28;95059;-51
2022/08/07 07:57:36;;;;;;;59.42;49.97;;;22.80;49.40;;;;;;4943126;28;92895;-52
2022/08/07 08:00:04;;;;;;;61.25;50.35;;;22.80;48.90;;;;;;4949287;28;91538;-51
2022/08/07 08:02:31;;;;;;;59.10;50.22;;;22.90;48.60;;;;;;4933880;28;89696;-52
2022/08/07 08:04:59;;;;;;;60.80;49.55;;;22.80;48.00;;;;;;4940391;28;91449;-55
2022/08/07 08:07:25;;;;;;;60.08;49.63;;;22.80;48.50;;;;;;4939626;28;91576;-55
2022/08/07 08:09:53;;;;;;;59.85;49.75;;;22.80;48.70;;;;;;4939445;28;90454;-49
2022/08/07 08:12:20;;;;;;;60.30;50.25;;;22.90;48.60;;;;;;4942796;28;89372;-46
2022/08/07 08:14:45;;;;;;;61.13;50.10;;;22.80;48.50;;;;;;4934982;28;96656;-52
2022/08/07 08:17:12;;;;;;;59.45;49.67;;;22.80;48.70;;;;;;4923835;28;92889;-52
2022/08/07 08:19:42;;;;;;;60.55;50.08;;;22.80;48.50;;;;;;4944088;28;90990;-47
2022/08/07 08:27:42;;;;;;;60.25;50.47;;;23.00;48.90;;;;;;4940475;28;95420;-48
2022/08/07 08:30:11;;;;;;;61.05;50.10;;;23.00;48.20;;;;;;4941163;28;91998;-50
2022/08/07 08:32:40;;;;;;;62.30;50.78;;;23.10;49.20;;;;;;4938817;28;90043;-53
2022/08/07 08:35:11;;;;;;;60.72;50.08;;;23.10;48.10;;;;;;4934171;28;95384;-53
2022/08/07 08:37:37;;;;;;;61.53;50.40;;;23.10;49.00;;;;;;4941705;28;91180;-51
2022/08/07 08:40:12;;;;;;;62.28;50.70;;;23.10;48.30;;;;;;4946279;28;89495;-54
2022/08/07 08:42:56;;;;;;;62.05;50.63;;;23.10;49.20;;;;;;4933310;28;89838;-45
2022/08/07 08:45:43;;;;;;;63.17;50.45;;;23.10;48.90;;;;;;4934836;28;91368;-48
2022/08/07 08:48:28;;;;;;;61.55;50.50;;;23.10;48.60;;;;;;4934665;28;91343;-50
2022/08/07 08:51:45;;;;;;;59.72;50.33;;;22.90;48.70;;;;;;4939203;28;90705;-48
2022/08/07 08:54:16;;;;;;;58.88;49.80;;;23.00;48.60;;;;;;4940568;28;94393;-52
2022/08/07 08:56:48;;;;;;;60.83;50.47;;;23.00;48.40;;;;;;4921698;28;90704;-53
2022/08/07 08:59:25;;;;;;;60.03;49.95;;;23.10;48.00;;;;;;4930727;28;91260;-47
2022/08/07 09:02:09;;;;;;;59.00;49.83;;;23.00;47.80;;;;;;4933524;28;91622;-54
2022/08/07 09:05:11;;;;;;;61.42;49.90;;;23.00;47.70;;;;;;4937918;28;90926;-50
2022/08/07 09:07:52;;;;;;;59.17;50.03;;;23.10;48.10;;;;;;4940490;28;92617;-49
2022/08/07 09:10:34;;;;;;;61.15;50.20;;;23.20;47.10;;;;;;4929017;28;99134;-54
2022/08/07 09:13:08;;;;;;;61.22;50.50;;;23.20;48.30;;;;;;4942781;28;91489;-50
2022/08/07 09:15:46;;;;;;;61.05;50.33;;;23.10;47.50;;;;;;4947933;28;90992;-49
2022/08/07 09:18:34;;;;;;;61.97;50.42;;;23.00;47.40;;;;;;4940117;28;91157;-45
2022/08/07 09:21:09;;;;;;;60.58;50.38;;;22.80;49.60;;;;;;4931628;28;94219;-53
2022/08/07 09:24:00;;;;;;;61.30;50.08;;;22.80;48.80;;;;;;4928456;28;91113;-49
2022/08/07 09:26:30;;;;;;;60.25;50.15;;;22.80;48.50;;;;;;4946887;28;90320;-50
2022/08/07 09:29:11;;;;;;;59.65;50.35;;;22.80;51.90;;;;;;4926933;28;93195;-48
2022/08/07 09:31:55;;;;;;;60.67;50.53;;;22.80;50.60;;;;;;4933328;28;90458;-50
2022/08/07 09:34:30;;;;;;;60.75;50.50;;;22.90;49.30;;;;;;4940640;28;89570;-49
2022/08/07 09:37:03;;;;;;;60.60;50.72;;;22.90;49.70;;;;;;4936570;28;92882;-51
2022/08/07 09:39:44;;;;;;;63.22;51.03;;;23.00;48.80;;;;;;4936884;28;91816;-50
2022/08/07 09:42:53;;;;;;;60.50;50.53;;;23.10;50.10;;;;;;4926803;28;92418;-49
2022/08/07 09:45:46;;;;;;;65.22;51.05;;;23.10;47.80;;;;;;4932454;28;90428;-52
2022/08/07 09:48:36;;;;;;;60.80;50.47;;;23.20;49.80;;;;;;4938764;28;90087;-50
2022/08/07 09:51:19;;;;;;;59.75;50.33;;;23.20;46.20;;;;;;4937902;28;89727;-56
2022/08/07 09:53:50;;;;;;;61.55;50.72;;;23.00;46.60;;;;;;4943251;28;92329;-55
2022/08/07 09:56:34;;;;;;;;;;;23.00;45.30;;;;;;4940112;28;92474;-52
2022/08/07 09:59:09;;;;;;;61.08;50.67;;;22.90;46.70;;;;;;4925467;28;89286;-54
2022/08/07 10:01:56;;;;;;;62.10;50.45;;;23.00;46.10;;;;;;4929986;28;91782;-55
2022/08/07 10:04:46;;;;;;;64.22;51.22;;;23.10;47.70;;;;;;4928925;28;91624;-57
2022/08/07 10:07:21;;;;;;;60.58;50.95;;;23.20;46.80;;;;;;4926683;28;91659;-53
2022/08/07 10:09:59;;;;;;;62.55;50.65;;;23.30;45.80;;;;;;4932466;28;92146;-52
2022/08/07 10:12:46;;;;;;;61.47;50.70;;;23.40;46.40;;;;;;4924173;28;90092;-48
2022/08/07 10:15:42;;;;;;;60.97;50.67;;;23.40;44.50;;;;;;4929488;28;94112;-51
2022/08/07 10:18:38;;;;;;;64.47;51.03;;;23.40;45.70;;;;;;4941482;28;91333;-51
2022/08/07 10:21:25;;;;;;;61.58;51.00;;;23.40;46.90;;;;;;4933783;28;94770;-51
2022/08/07 10:24:44;;;;;;;61.03;50.78;;;23.40;46.80;;;;;;4926771;28;90420;-52
2022/08/07 10:27:32;;;;;;;61.53;50.70;;;23.50;45.80;;;;;;4921984;28;89868;-54
2022/08/07 10:30:08;;;;;;;61.05;50.60;;;23.50;45.60;;;;;;4935164;28;91220;-56
2022/08/07 10:33:04;;;;;;;62.15;51.00;;;23.50;43.80;;;;;;4930961;28;91129;-52
2022/08/07 10:35:51;;;;;;;61.03;50.72;;;23.60;43.40;;;;;;4921939;28;91385;-48
2022/08/07 10:38:26;;;;;;;60.17;51.03;;;23.60;45.10;;;;;;4940538;28;90961;-51
2022/08/07 10:41:03;;;;;;;62.20;51.05;;;23.60;43.70;;;;;;4926595;28;94781;-53
2022/08/07 10:43:33;;;;;;;60.88;50.85;;;23.60;44.50;;;;;;4935019;28;94343;-52
2022/08/07 10:46:14;;;;;;;63.50;51.20;;;23.60;42.90;;;;;;4939143;28;90849;-55
2022/08/07 10:48:56;;;;;;;63.60;51.28;;;23.70;44.10;;;;;;4929919;28;91529;-54
2022/08/07 10:51:33;;;;;;;65.18;51.05;;;23.70;43.70;;;;;;4921995;28;95690;-50
2022/08/07 10:54:09;;;;;;;62.05;51.13;;;23.80;43.70;;;;;;4941271;28;91063;-52
2022/08/07 10:56:59;;;;;;;62.55;51.03;;;23.80;43.00;;;;;;4930370;28;94269;-50
2022/08/07 10:59:57;;;;;;;63.85;50.97;;;23.80;45.10;;;;;;4925890;28;90290;-53
2022/08/07 11:02:42;;;;;;;63.53;51.38;;;23.90;44.40;;;;;;4937578;28;94221;-51
2022/08/07 11:05:18;;;;;;;62.80;51.45;;;23.90;44.20;;;;;;4935013;28;91216;-53
2022/08/07 11:08:03;;;;;;;62.50;51.30;;;24.10;43.20;;;;;;4945282;28;92215;-51
2022/08/07 11:10:49;;;;;;;62.78;51.47;;;24.00;44.30;;;;;;4948151;28;90138;-54
2022/08/07 11:13:40;;;;;;;62.40;51.65;;;24.10;46.00;;;;;;4949092;28;91836;-53
2022/08/07 11:16:15;;;;;;;62.53;51.00;;;24.10;44.30;;;;;;4942099;28;89968;-57
2022/08/07 11:18:46;;;;;;;62.10;51.10;;;24.20;45.10;;;;;;4935843;28;95230;-52
2022/08/07 11:21:25;;;;;;;62.57;51.27;;;24.20;42.80;;;;;;4951023;28;95325;-54
2022/08/07 11:24:22;;;;;;;63.35;51.63;;;24.10;44.70;;;;;;4935594;28;96503;-53
2022/08/07 11:27:16;;;;;;;62.03;50.72;;;24.30;45.80;;;;;;4937253;28;90404;-56
2022/08/07 11:30:06;;;;;;;63.13;51.15;;;24.40;40.40;;;;;;4941694;28;93511;-53
2022/08/07 11:32:50;;;;;;;63.60;51.35;;;24.30;42.40;;;;;;4950706;28;90900;-56
2022/08/07 11:35:35;;;;;;;61.45;50.88;;;24.40;42.90;;;;;;4938398;28;91006;-55
2022/08/07 11:38:09;;;;;;;63.40;51.00;;;24.40;42.70;;;;;;4946127;28;89793;-49
2022/08/07 11:40:55;;;;;;;63.92;51.42;;;24.50;44.70;;;;;;4938011;28;94399;-53
2022/08/07 11:43:30;;;;;;;62.53;51.08;;;24.50;43.60;;;;;;4943758;28;90831;-54
2022/08/07 11:46:21;;;;;;;62.65;51.33;;;24.50;41.60;;;;;;4926955;28;89544;-55
2022/08/07 11:49:01;;;;;;;63.72;51.13;;;24.60;42.30;;;;;;4938091;28;89345;-55
2022/08/07 11:51:49;;;;;;;62.97;51.30;;;24.50;42.60;;;;;;4944302;28;90054;-57
2022/08/07 11:54:56;;;;;;;63.90;51.28;;;24.50;40.70;;;;;;4930654;28;92693;-55
2022/08/07 11:57:36;;;;;;;63.90;51.35;;;24.60;42.90;;;;;;4944813;28;92308;-55
2022/08/07 12:00:08;;;;;;;64.82;51.78;;;24.70;43.60;;;;;;4935898;28;90198;-54
2022/08/07 12:03:03;;;;;;;63.58;51.45;;;24.70;43.50;;;;;;4932471;28;94686;-54
2022/08/07 12:05:29;;;;;;;63.97;51.47;;;24.70;41.70;;;;;;4926435;28;90613;-49
2022/08/07 12:08:00;;;;;;;67.75;51.90;;;24.70;42.20;;;;;;4937598;28;90129;-52
2022/08/07 12:10:45;;;;;;;65.53;52.95;;;24.70;41.70;;;;;;4952211;28;91849;-55
2022/08/07 12:13:15;;;;;;;63.05;51.47;;;24.70;41.70;;;;;;4936785;28;92332;-57
2022/08/07 12:15:50;;;;;;;63.60;51.70;;;24.70;41.50;;;;;;4950178;28;91580;-52
2022/08/07 12:18:33;;;;;;;64.50;52.00;;;24.70;42.10;;;;;;4932186;28;92852;-55
2022/08/07 12:21:53;;;;;;;63.22;51.88;;;24.70;43.00;;;;;;4935644;28;91177;-49
2022/08/07 12:27:39;;;;;;;65.22;51.60;;;24.90;43.80;;;;;;4944950;28;91736;-56
2022/08/07 12:30:07;;;;;;;63.53;51.85;;;25.00;40.80;;;;;;4947242;28;92726;-55
2022/08/07 12:33:00;;;;;;;63.83;51.85;;;24.90;42.00;;;;;;4943896;28;91740;-55
2022/08/07 12:35:29;;;;;;;64.68;52.13;;;24.90;40.20;;;;;;4929055;28;91825;-55
2022/08/07 12:37:57;;;;;;;66.22;51.80;;;24.90;43.40;;;;;;4938113;28;91393;-55
2022/08/07 12:40:26;;;;;;;65.88;51.95;;;24.90;41.40;;;;;;4928838;28;95194;-52
2022/08/07 12:42:55;;;;;;;65.20;52.38;;;24.80;41.00;;;;;;4935876;28;91326;-52
2022/08/07 12:45:26;;;;;;;62.83;51.42;;;24.80;42.90;;;;;;4943015;28;90722;-50
2022/08/07 12:48:13;;;;;;;63.00;51.47;;;25.00;41.60;;;;;;4938705;28;91235;-53
2022/08/07 12:50:54;;;;;;;62.25;51.45;;;25.00;39.40;;;;;;4941249;28;91607;-56
2022/08/07 12:53:35;;;;;;;64.15;51.25;;;25.00;42.90;;;;;;4935069;28;95676;-54
2022/08/07 12:56:10;;;;;;;63.38;51.53;;;25.10;38.40;;;;;;4933273;28;89794;-52
2022/08/07 12:58:41;;;;;;;63.78;51.55;;;25.00;41.20;;;;;;4939359;28;91082;-52
2022/08/07 13:01:21;;;;;;;66.33;51.60;;;25.00;41.10;;;;;;4936606;28;91311;-56
2022/08/07 13:04:15;;;;;;;63.50;51.55;;;25.10;39.60;;;;;;4941603;28;91553;-53
2022/08/07 13:06:50;;;;;;;63.72;51.88;;;25.10;41.80;;;;;;4943058;28;89908;-48